Time;durP1;ratioP1;P1;durP2;ratioP2;P2;SDS_P1;SDS_P2;PMS_P1;PMS_P2;Temp;Humidity;BMP_temperature;BMP_pressure;BME280_temperature;BME280_humidity;BME280_pressure;Samples;Min_cycle;Max_cycle;Signal;HPM_P1;HPM_P2
2023/04/22 00:00:08;;;;;;;;;33.50;26.50;;;;;;;;5053920;28;11680;-83
2023/04/22 00:02:37;;;;;;;;;25.25;25.25;;;;;;;;5054579;28;11608;-84
2023/04/22 00:05:05;;;;;;;;;26.75;24.25;;;;;;;;5054511;28;11604;-84
2023/04/22 00:07:32;;;;;;;;;32.25;30.75;;;;;;;;5054363;28;11568;-83
2023/04/22 00:10:01;;;;;;;;;34.25;32.00;;;;;;;;5054960;28;11602;-84
2023/04/22 00:12:28;;;;;;;;;34.75;32.50;;;;;;;;5056683;28;11718;-84
2023/04/22 00:14:55;;;;;;;;;27.50;26.75;;;;;;;;5054197;28;12531;-84
2023/04/22 00:17:23;;;;;;;;;22.75;22.75;;;;;;;;5053063;28;11597;-83
2023/04/22 00:19:50;;;;;;;;;30.75;28.75;;;;;;;;5053304;28;11713;-84
2023/04/22 00:22:18;;;;;;;;;28.00;24.75;;;;;;;;5057326;28;11586;-84
2023/04/22 00:24:45;;;;;;;;;30.25;29.25;;;;;;;;5060110;28;11693;-84
2023/04/22 00:27:14;;;;;;;;;32.00;29.75;;;;;;;;5053818;28;11580;-84
2023/04/22 00:29:41;;;;;;;;;25.50;22.50;;;;;;;;5053785;28;11619;-85
2023/04/22 00:32:08;;;;;;;;;29.50;26.75;;;;;;;;5054504;28;11552;-84
2023/04/22 00:34:38;;;;;;;;;26.00;22.00;;;;;;;;5054204;28;11618;-84
2023/04/22 00:37:06;;;;;;;;;27.50;25.50;;;;;;;;5053603;28;11724;-85
2023/04/22 00:39:34;;;;;;;;;34.50;28.25;;;;;;;;5053685;28;11602;-84
2023/04/22 00:42:01;;;;;;;;;27.25;25.50;;;;;;;;5054386;28;11597;-83
2023/04/22 00:44:33;;;;;;;;;29.75;26.00;;;;;;;;5055630;28;11621;-83
2023/04/22 00:47:01;;;;;;;;;23.00;22.00;;;;;;;;5043674;28;11575;-83
2023/04/22 00:49:28;;;;;;;;;29.75;24.25;;;;;;;;5056211;28;11631;-83
2023/04/22 00:51:56;;;;;;;;;25.00;25.00;;;;;;;;5051241;28;11623;-83
2023/04/22 00:54:23;;;;;;;;;38.50;30.00;;;;;;;;5053034;28;11710;-83
2023/04/22 00:56:50;;;;;;;;;21.00;18.00;;;;;;;;5054150;28;11604;-83
2023/04/22 00:59:17;;;;;;;;;31.50;30.50;;;;;;;;5056393;28;11574;-83
2023/04/22 01:01:47;;;;;;;;;33.75;28.00;;;;;;;;5053883;28;11535;-83
2023/04/22 01:04:15;;;;;;;;;22.00;22.00;;;;;;;;5057760;28;11575;-83
2023/04/22 01:06:43;;;;;;;;;28.25;26.00;;;;;;;;5055353;28;11586;-83
2023/04/22 01:09:10;;;;;;;;;26.50;23.75;;;;;;;;5068076;28;11574;-82
2023/04/22 01:11:37;;;;;;;;;20.75;20.75;;;;;;;;5052590;28;12527;-84
2023/04/22 01:14:05;;;;;;;;;31.50;28.25;;;;;;;;5057137;28;11707;-84
2023/04/22 01:16:34;;;;;;;;;29.25;26.25;;;;;;;;5061644;28;11554;-83
2023/04/22 01:19:03;;;;;;;;;29.00;28.00;;;;;;;;5051716;28;11592;-83
2023/04/22 01:21:32;;;;;;;;;25.75;25.75;;;;;;;;5059048;28;11615;-84
2023/04/22 01:24:02;;;;;;;;;27.50;27.50;;;;;;;;5054311;28;11615;-83
2023/04/22 01:26:29;;;;;;;;;29.00;26.75;;;;;;;;5058833;28;11662;-84
2023/04/22 01:28:57;;;;;;;;;32.50;29.75;;;;;;;;5063010;28;11584;-83
2023/04/22 01:31:25;;;;;;;;;25.00;25.00;;;;;;;;5057891;28;11630;-83
2023/04/22 01:33:52;;;;;;;;;26.75;26.75;;;;;;;;5050974;28;11655;-83
2023/04/22 01:36:19;;;;;;;;;28.50;28.50;;;;;;;;5050323;28;11675;-83
2023/04/22 01:38:46;;;;;;;;;32.50;30.25;;;;;;;;5050248;28;11603;-84
2023/04/22 01:41:15;;;;;;;;;30.00;28.50;;;;;;;;5049837;28;11663;-84
2023/04/22 01:43:43;;;;;;;;;25.25;24.00;;;;;;;;5052761;28;11628;-83
2023/04/22 01:46:11;;;;;;;;;31.75;30.00;;;;;;;;5056006;28;11666;-85
2023/04/22 01:48:39;;;;;;;;;27.00;25.75;;;;;;;;5060340;28;11719;-85
2023/04/22 01:51:06;;;;;;;;;26.25;22.00;;;;;;;;5049731;28;11578;-84
2023/04/22 01:53:33;;;;;;;;;35.75;24.50;;;;;;;;5050213;28;11580;-84
2023/04/22 01:56:00;;;;;;;;;34.25;32.50;;;;;;;;5049542;28;11686;-84
2023/04/22 01:58:34;;;;;;;;;34.00;28.50;;;;;;;;5043072;28;11714;-84
2023/04/22 02:01:02;;;;;;;;;29.00;29.00;;;;;;;;5050635;28;11542;-84
2023/04/22 02:03:37;;;;;;;;;35.00;31.50;;;;;;;;5051076;28;11653;-85
2023/04/22 02:06:04;;;;;;;;;23.75;23.25;;;;;;;;5049181;28;11608;-82
2023/04/22 02:08:31;;;;;;;;;30.50;29.75;;;;;;;;5050424;28;11716;-83
2023/04/22 02:11:00;;;;;;;;;32.50;31.50;;;;;;;;5048530;28;12407;-85
2023/04/22 02:13:37;;;;;;;;;35.75;32.50;;;;;;;;5050499;28;11664;-84
2023/04/22 02:16:04;;;;;;;;;35.75;35.75;;;;;;;;5050070;28;11743;-84
2023/04/22 02:18:32;;;;;;;;;38.50;31.00;;;;;;;;5051601;28;11586;-84
2023/04/22 02:20:59;;;;;;;;;28.75;27.50;;;;;;;;5050448;28;11570;-84
2023/04/22 02:23:28;;;;;;;;;37.75;34.50;;;;;;;;5050447;28;11574;-84
2023/04/22 02:25:56;;;;;;;;;36.00;33.50;;;;;;;;5048902;28;11586;-84
2023/04/22 02:28:23;;;;;;;;;36.75;31.50;;;;;;;;5049996;28;11667;-84
2023/04/22 02:30:52;;;;;;;;;34.25;34.25;;;;;;;;5049593;28;11516;-84
2023/04/22 02:33:19;;;;;;;;;30.75;30.75;;;;;;;;5049158;28;11596;-84
2023/04/22 02:35:46;;;;;;;;;32.75;29.25;;;;;;;;5049806;28;11687;-83
2023/04/22 02:38:14;;;;;;;;;37.25;34.00;;;;;;;;5049525;28;11583;-84
2023/04/22 02:40:41;;;;;;;;;42.00;37.00;;;;;;;;5050242;28;11714;-84
2023/04/22 02:43:09;;;;;;;;;31.00;30.75;;;;;;;;5049831;28;11705;-83
2023/04/22 02:45:36;;;;;;;;;41.75;35.75;;;;;;;;5048835;28;11599;-84
2023/04/22 02:48:05;;;;;;;;;36.75;33.25;;;;;;;;5050194;28;12442;-84
2023/04/22 02:50:32;;;;;;;;;33.75;32.75;;;;;;;;5050306;28;11628;-84
2023/04/22 02:53:00;;;;;;;;;32.25;29.75;;;;;;;;5049461;28;11617;-84
2023/04/22 02:55:27;;;;;;;;;41.00;33.75;;;;;;;;5049976;28;11599;-83
2023/04/22 02:57:54;;;;;;;;;30.25;26.25;;;;;;;;5051356;28;11724;-84
2023/04/22 03:00:22;;;;;;;;;31.25;29.25;;;;;;;;5061542;28;11588;-83
2023/04/22 03:02:49;;;;;;;;;38.50;36.25;;;;;;;;5050617;28;11689;-83
2023/04/22 03:05:18;;;;;;;;;39.50;36.50;;;;;;;;5050514;28;11605;-84
2023/04/22 03:07:46;;;;;;;;;38.50;37.00;;;;;;;;5039671;28;11583;-84
2023/04/22 03:10:13;;;;;;;;;53.00;43.50;;;;;;;;5058704;28;11617;-85
2023/04/22 03:12:41;;;;;;;;;41.75;37.25;;;;;;;;5051757;28;11684;-83
2023/04/22 03:15:09;;;;;;;;;37.25;35.50;;;;;;;;5056891;28;11614;-83
2023/04/22 03:17:36;;;;;;;;;44.75;39.25;;;;;;;;5052494;28;11621;-84
2023/04/22 03:20:05;;;;;;;;;40.50;37.00;;;;;;;;5053953;28;11628;-84
2023/04/22 03:22:34;;;;;;;;;46.00;41.00;;;;;;;;5052825;28;11779;-83
2023/04/22 03:25:01;;;;;;;;;50.50;42.00;;;;;;;;5052270;28;12429;-84
2023/04/22 03:27:28;;;;;;;;;45.75;41.50;;;;;;;;5052448;28;11650;-84
2023/04/22 03:29:55;;;;;;;;;31.50;30.25;;;;;;;;5059312;28;11755;-84
2023/04/22 03:32:25;;;;;;;;;41.75;37.00;;;;;;;;5055573;28;11648;-84
2023/04/22 03:34:52;;;;;;;;;38.75;35.75;;;;;;;;5053424;28;11620;-86
2023/04/22 03:37:19;;;;;;;;;37.50;32.50;;;;;;;;5041082;28;11602;-84
2023/04/22 03:39:48;;;;;;;;;51.50;42.25;;;;;;;;5052719;28;11704;-83
2023/04/22 03:42:15;;;;;;;;;42.00;37.00;;;;;;;;5053135;28;11658;-84
2023/04/22 03:44:43;;;;;;;;;45.75;39.50;;;;;;;;5052594;28;11614;-84
2023/04/22 03:47:10;;;;;;;;;48.75;42.25;;;;;;;;5052104;28;11594;-85
2023/04/22 03:49:37;;;;;;;;;42.50;38.50;;;;;;;;5051852;28;11598;-84
2023/04/22 03:52:05;;;;;;;;;45.00;37.25;;;;;;;;5040642;28;11597;-84
2023/04/22 03:54:32;;;;;;;;;44.50;38.75;;;;;;;;5052752;28;11598;-82
2023/04/22 03:57:01;;;;;;;;;43.00;37.00;;;;;;;;5053828;28;11597;-83
2023/04/22 03:59:28;;;;;;;;;42.00;38.75;;;;;;;;5053244;28;11595;-84
2023/04/22 04:01:58;;;;;;;;;45.25;38.25;;;;;;;;5052540;28;11686;-83
2023/04/22 04:04:27;;;;;;;;;48.75;40.00;;;;;;;;5053042;28;11620;-84
2023/04/22 04:06:55;;;;;;;;;46.75;41.50;;;;;;;;5040883;28;11601;-83
2023/04/22 04:09:22;;;;;;;;;51.25;42.00;;;;;;;;5053372;28;11595;-83
2023/04/22 04:11:52;;;;;;;;;45.50;40.75;;;;;;;;5051900;28;11654;-83
2023/04/22 04:14:21;;;;;;;;;41.75;36.75;;;;;;;;5053145;28;11694;-83
2023/04/22 04:16:49;;;;;;;;;48.25;39.50;;;;;;;;5052367;28;11618;-84
2023/04/22 04:19:16;;;;;;;;;46.75;38.75;;;;;;;;5052971;28;11573;-84
2023/04/22 04:21:44;;;;;;;;;43.50;39.00;;;;;;;;5052566;28;11601;-83
2023/04/22 04:24:11;;;;;;;;;42.50;38.25;;;;;;;;5052135;28;11705;-83
2023/04/22 04:26:38;;;;;;;;;41.00;37.75;;;;;;;;5051210;28;11746;-83
2023/04/22 04:29:07;;;;;;;;;52.25;42.50;;;;;;;;5050937;28;11603;-83
2023/04/22 04:31:36;;;;;;;;;45.00;38.25;;;;;;;;5050452;28;11517;-83
2023/04/22 04:34:03;;;;;;;;;48.25;39.75;;;;;;;;5052025;28;11581;-83
2023/04/22 04:36:31;;;;;;;;;40.50;37.25;;;;;;;;5041193;28;11606;-83
2023/04/22 04:39:01;;;;;;;;;54.25;44.25;;;;;;;;5049337;28;11603;-84
2023/04/22 04:41:30;;;;;;;;;44.50;36.00;;;;;;;;5051520;28;11597;-84
2023/04/22 04:43:59;;;;;;;;;43.50;38.50;;;;;;;;5059920;28;11655;-83
2023/04/22 04:46:28;;;;;;;;;42.25;39.00;;;;;;;;5061153;28;11613;-84
2023/04/22 04:48:57;;;;;;;;;44.50;39.50;;;;;;;;5062956;28;11689;-83
2023/04/22 04:51:25;;;;;;;;;49.50;40.75;;;;;;;;5052533;28;11594;-84
2023/04/22 04:53:52;;;;;;;;;45.00;39.75;;;;;;;;5058478;28;11622;-83
2023/04/22 04:56:19;;;;;;;;;37.50;36.50;;;;;;;;5061195;28;11564;-81
2023/04/22 04:58:47;;;;;;;;;43.50;37.50;;;;;;;;5051310;28;11740;-78
2023/04/22 05:01:14;;;;;;;;;46.25;36.00;;;;;;;;5066784;28;11514;-79
2023/04/22 05:03:41;;;;;;;;;41.25;37.00;;;;;;;;5049578;28;11616;-77
2023/04/22 05:06:10;;;;;;;;;42.25;39.25;;;;;;;;5056739;28;11692;-77
2023/04/22 05:08:37;;;;;;;;;48.25;40.50;;;;;;;;5060879;28;11600;-75
2023/04/22 05:11:05;;;;;;;;;39.00;35.75;;;;;;;;5052574;28;11738;-76
2023/04/22 05:13:32;;;;;;;;;45.25;39.00;;;;;;;;5049265;28;11621;-77
2023/04/22 05:15:59;;;;;;;;;51.75;42.00;;;;;;;;5048447;28;11606;-75
2023/04/22 05:18:27;;;;;;;;;31.00;26.25;;;;;;;;5045721;28;12213;-79
2023/04/22 05:20:54;;;;;;;;;42.00;37.25;;;;;;;;5049430;28;11692;-77
2023/04/22 05:23:23;;;;;;;;;48.25;40.00;;;;;;;;5049078;28;11573;-77
2023/04/22 05:25:50;;;;;;;;;46.50;37.75;;;;;;;;5054971;28;11698;-75
2023/04/22 05:28:17;;;;;;;;;49.00;38.25;;;;;;;;5048123;28;11579;-74
2023/04/22 05:30:45;;;;;;;;;45.25;39.50;;;;;;;;5049099;28;11640;-74
2023/04/22 05:33:12;;;;;;;;;48.00;41.25;;;;;;;;5048635;28;11564;-74
2023/04/22 05:35:39;;;;;;;;;44.50;40.75;;;;;;;;5050714;28;11606;-74
2023/04/22 05:38:10;;;;;;;;;53.75;42.50;;;;;;;;5048771;28;12540;-74
2023/04/22 05:40:39;;;;;;;;;43.00;38.50;;;;;;;;5048453;28;11050;-73
2023/04/22 05:43:06;;;;;;;;;46.50;41.00;;;;;;;;5047765;28;11729;-74
2023/04/22 05:45:34;;;;;;;;;46.75;38.75;;;;;;;;5049033;28;11113;-74
2023/04/22 05:48:01;;;;;;;;;39.25;36.00;;;;;;;;5048936;28;11727;-73
2023/04/22 05:50:28;;;;;;;;;43.50;36.50;;;;;;;;5049095;28;11601;-73
2023/04/22 05:52:55;;;;;;;;;41.50;36.75;;;;;;;;5048948;28;11609;-73
2023/04/22 05:55:22;;;;;;;;;47.75;40.25;;;;;;;;5048118;28;11627;-73
2023/04/22 05:57:51;;;;;;;;;43.00;38.25;;;;;;;;5048788;28;11570;-72
2023/04/22 06:00:19;;;;;;;;;37.50;34.00;;;;;;;;5047315;28;11587;-72
2023/04/22 06:02:46;;;;;;;;;30.00;26.75;;;;;;;;5047658;28;11586;-72
2023/04/22 06:05:13;;;;;;;;;48.25;39.75;;;;;;;;5048828;28;11637;-72
2023/04/22 06:07:40;;;;;;;;;41.50;38.25;;;;;;;;5048912;28;11601;-72
2023/04/22 06:10:09;;;;;;;;;44.25;39.25;;;;;;;;5041539;28;11606;-72
2023/04/22 06:12:36;;;;;;;;;52.00;42.25;;;;;;;;5045482;28;11708;-71
2023/04/22 06:15:06;;;;;;;;;45.50;37.75;;;;;;;;5048583;28;11713;-72
2023/04/22 06:17:33;;;;;;;;;52.25;41.75;;;;;;;;5048947;28;12261;-72
2023/04/22 06:20:00;;;;;;;;;49.00;41.75;;;;;;;;5047840;28;11622;-71
2023/04/22 06:22:27;;;;;;;;;39.75;37.25;;;;;;;;5048210;28;11542;-72
2023/04/22 06:24:54;;;;;;;;;31.00;28.50;;;;;;;;5048343;28;11558;-71
2023/04/22 06:27:21;;;;;;;;;35.00;34.50;;;;;;;;5047556;28;11576;-72
2023/04/22 06:29:49;;;;;;;;;39.00;35.50;;;;;;;;5047629;28;11639;-72
2023/04/22 06:32:18;;;;;;;;;47.00;39.00;;;;;;;;5048545;28;11530;-72
2023/04/22 06:34:45;;;;;;;;;36.25;35.25;;;;;;;;5052683;28;11571;-72
2023/04/22 06:37:13;;;;;;;;;49.00;38.00;;;;;;;;5060009;28;12402;-72
2023/04/22 06:39:40;;;;;;;;;51.50;44.00;;;;;;;;5062387;28;11590;-72
2023/04/22 06:42:08;;;;;;;;;25.25;20.50;;;;;;;;5052744;28;11569;-76
2023/04/22 06:44:35;;;;;;;;;50.25;40.50;;;;;;;;5064596;28;11560;-72
2023/04/22 06:47:02;;;;;;;;;39.25;35.25;;;;;;;;5059550;28;11810;-71
2023/04/22 06:49:34;;;;;;;;;43.25;38.00;;;;;;;;5058805;28;12163;-72
2023/04/22 06:52:01;;;;;;;;;37.75;33.00;;;;;;;;5047676;28;11925;-71
2023/04/22 06:54:29;;;;;;;;;48.75;40.50;;;;;;;;5047772;28;11573;-71
2023/04/22 06:56:56;;;;;;;;;50.00;40.00;;;;;;;;5052339;28;11608;-71
2023/04/22 06:59:23;;;;;;;;;38.75;36.75;;;;;;;;5057779;28;11579;-71
2023/04/22 07:01:50;;;;;;;;;35.75;33.25;;;;;;;;5052815;28;11543;-72
2023/04/22 07:04:18;;;;;;;;;46.00;39.50;;;;;;;;5057455;28;11573;-72
2023/04/22 07:06:46;;;;;;;;;52.00;41.00;;;;;;;;5053091;28;11631;-72
2023/04/22 07:09:13;;;;;;;;;40.50;34.75;;;;;;;;5057394;28;11583;-74
2023/04/22 07:11:41;;;;;;;;;31.25;29.25;;;;;;;;5052197;28;11682;-73
2023/04/22 07:14:08;;;;;;;;;38.50;35.25;;;;;;;;5057220;28;11713;-72
2023/04/22 07:16:35;;;;;;;;;39.75;37.00;;;;;;;;5052920;28;11624;-75
2023/04/22 07:19:03;;;;;;;;;35.25;32.75;;;;;;;;5041626;28;12361;-71
2023/04/22 07:21:31;;;;;;;;;42.50;37.00;;;;;;;;5052712;28;11712;-73
2023/04/22 07:23:59;;;;;;;;;38.75;36.75;;;;;;;;5046944;28;11722;-73
2023/04/22 07:26:27;;;;;;;;;40.00;34.75;;;;;;;;5047303;28;11589;-72
2023/04/22 07:28:54;;;;;;;;;42.25;37.50;;;;;;;;5056313;28;11533;-72
2023/04/22 07:31:21;;;;;;;;;30.00;28.50;;;;;;;;5051537;28;11475;-71
2023/04/22 07:33:48;;;;;;;;;47.75;40.50;;;;;;;;5047742;28;12341;-75
2023/04/22 07:36:16;;;;;;;;;36.75;34.00;;;;;;;;5047207;28;11586;-73
2023/04/22 07:38:43;;;;;;;;;45.00;39.25;;;;;;;;5046847;28;11590;-74
2023/04/22 07:41:12;;;;;;;;;40.25;36.00;;;;;;;;5047266;28;11530;-72
2023/04/22 07:43:39;;;;;;;;;46.50;40.25;;;;;;;;5047394;28;11513;-72
2023/04/22 07:46:06;;;;;;;;;43.75;37.00;;;;;;;;5047656;28;11524;-75
2023/04/22 07:48:34;;;;;;;;;30.00;30.00;;;;;;;;5048448;28;11632;-76
2023/04/22 07:51:01;;;;;;;;;43.25;35.25;;;;;;;;5047155;28;11669;-74
2023/04/22 07:53:28;;;;;;;;;30.00;27.75;;;;;;;;5047379;28;11635;-73
2023/04/22 07:55:56;;;;;;;;;36.50;34.75;;;;;;;;5047248;28;12447;-74
2023/04/22 07:58:24;;;;;;;;;38.50;34.00;;;;;;;;5048033;28;11548;-74
2023/04/22 08:00:51;;;;;;;;;41.50;36.50;;;;;;;;5047441;28;11470;-72
2023/04/22 08:03:19;;;;;;;;;51.00;43.25;;;;;;;;5047884;28;11532;-71
2023/04/22 08:05:46;;;;;;;;;44.25;36.75;;;;;;;;5047389;28;11626;-74
2023/04/22 08:08:13;;;;;;;;;41.75;37.00;;;;;;;;5051541;28;11550;-75
2023/04/22 08:10:41;;;;;;;;;43.75;39.00;;;;;;;;5051910;28;11547;-75
2023/04/22 08:13:08;;;;;;;;;32.75;30.50;;;;;;;;5051877;28;11515;-75
2023/04/22 08:15:36;;;;;;;;;38.50;34.25;;;;;;;;5051315;28;11536;-75
2023/04/22 08:18:03;;;;;;;;;35.75;33.75;;;;;;;;5051424;28;11635;-76
2023/04/22 08:20:31;;;;;;;;;39.50;35.00;;;;;;;;5051254;28;11659;-73
2023/04/22 08:22:59;;;;;;;;;40.25;35.00;;;;;;;;5050809;28;11530;-72
2023/04/22 08:25:26;;;;;;;;;37.75;35.75;;;;;;;;5050796;28;11566;-72
2023/04/22 08:27:53;;;;;;;;;44.00;39.00;;;;;;;;5050997;28;11626;-75
2023/04/22 08:30:21;;;;;;;;;42.25;37.25;;;;;;;;5051112;28;11532;-73
2023/04/22 08:32:51;;;;;;;;;37.25;33.50;;;;;;;;5039496;28;11509;-74
2023/04/22 08:35:19;;;;;;;;;32.50;29.50;;;;;;;;5050807;28;11596;-74
2023/04/22 08:37:46;;;;;;;;;36.00;33.50;;;;;;;;5055976;28;11542;-76
2023/04/22 08:40:13;;;;;;;;;40.25;35.50;;;;;;;;5056135;28;11561;-76
2023/04/22 08:42:40;;;;;;;;;41.25;36.50;;;;;;;;5047247;28;11558;-74
2023/04/22 08:45:09;;;;;;;;;39.00;35.50;;;;;;;;5053873;28;11542;-73
2023/04/22 08:47:38;;;;;;;;;42.25;36.00;;;;;;;;5053346;28;11562;-77
2023/04/22 08:50:08;;;;;;;;;37.00;35.25;;;;;;;;5053443;28;11529;-75
2023/04/22 08:52:35;;;;;;;;;38.50;34.00;;;;;;;;5050134;28;11528;-73
2023/04/22 08:55:03;;;;;;;;;38.75;34.50;;;;;;;;5049418;28;11551;-72
2023/04/22 08:57:30;;;;;;;;;36.50;35.00;;;;;;;;5049562;28;11510;-72
2023/04/22 08:59:57;;;;;;;;;43.00;37.00;;;;;;;;5049282;28;11556;-72
2023/04/22 09:02:25;;;;;;;;;44.50;39.25;;;;;;;;5049843;28;11489;-72
2023/04/22 09:04:53;;;;;;;;;38.00;35.75;;;;;;;;5049815;28;11308;-70
2023/04/22 09:07:24;;;;;;;;;43.00;36.75;;;;;;;;5049754;28;11521;-71
2023/04/22 09:09:52;;;;;;;;;37.75;36.00;;;;;;;;5049346;28;11621;-73
2023/04/22 09:12:20;;;;;;;;;46.75;39.00;;;;;;;;5048943;28;11527;-73
2023/04/22 09:14:47;;;;;;;;;47.00;38.00;;;;;;;;5050192;28;11697;-72
2023/04/22 09:17:17;;;;;;;;;68.00;53.50;;;;;;;;5041278;28;12384;-73
2023/04/22 09:19:44;;;;;;;;;64.00;51.00;;;;;;;;5048502;28;12373;-72
2023/04/22 09:22:13;;;;;;;;;44.50;40.00;;;;;;;;5048941;28;11576;-72
2023/04/22 09:24:44;;;;;;;;;46.00;38.25;;;;;;;;5057273;28;11511;-73
2023/04/22 09:27:14;;;;;;;;;48.50;40.50;;;;;;;;5049322;28;11586;-73
2023/04/22 09:29:48;;;;;;;;;42.75;37.00;;;;;;;;5050126;28;12305;-71
2023/04/22 09:32:15;;;;;;;;;43.25;36.50;;;;;;;;5048696;28;11468;-72
2023/04/22 09:34:49;;;;;;;;;50.50;42.00;;;;;;;;5049867;28;11676;-75
2023/04/22 09:37:18;;;;;;;;;46.25;39.25;;;;;;;;5049366;28;11522;-75
2023/04/22 09:39:48;;;;;;;;;51.75;42.50;;;;;;;;5049213;28;11520;-77
2023/04/22 09:42:16;;;;;;;;;44.00;37.00;;;;;;;;5048922;28;12126;-74
2023/04/22 09:44:44;;;;;;;;;39.00;35.50;;;;;;;;5049609;28;11564;-72
2023/04/22 09:47:11;;;;;;;;;41.25;37.50;;;;;;;;5049444;28;11292;-72
2023/04/22 09:49:39;;;;;;;;;54.00;45.25;;;;;;;;5049297;28;11678;-74
2023/04/22 09:52:06;;;;;;;;;33.25;33.00;;;;;;;;5049404;28;11538;-75
2023/04/22 09:54:34;;;;;;;;;38.25;34.75;;;;;;;;5049276;28;11232;-72
2023/04/22 09:57:03;;;;;;;;;35.50;33.00;;;;;;;;5049619;28;11012;-75
2023/04/22 09:59:30;;;;;;;;;40.75;34.75;;;;;;;;5049411;28;11180;-73
2023/04/22 10:02:00;;;;;;;;;45.75;39.75;;;;;;;;5049010;28;11480;-84
2023/04/22 10:04:27;;;;;;;;;41.50;38.50;;;;;;;;5048218;28;12332;-74
2023/04/22 10:06:55;;;;;;;;;45.25;39.75;;;;;;;;5048685;28;11637;-76
2023/04/22 10:09:24;;;;;;;;;45.50;38.00;;;;;;;;5048214;28;11524;-75
2023/04/22 10:11:53;;;;;;;;;49.00;39.75;;;;;;;;5048707;28;11521;-74
2023/04/22 10:14:22;;;;;;;;;41.75;36.00;;;;;;;;5048958;28;11489;-78
2023/04/22 10:16:52;;;;;;;;;39.75;36.50;;;;;;;;5049453;28;11519;-76
2023/04/22 10:19:21;;;;;;;;;39.25;34.50;;;;;;;;5050365;28;11552;-78
2023/04/22 10:21:51;;;;;;;;;38.75;36.50;;;;;;;;5050138;28;11674;-76
2023/04/22 10:24:20;;;;;;;;;49.75;39.25;;;;;;;;5052191;28;11549;-77
2023/04/22 10:26:54;;;;;;;;;40.75;35.75;;;;;;;;5054147;28;11607;-75
2023/04/22 10:29:23;;;;;;;;;45.75;38.50;;;;;;;;5065515;28;11498;-74
2023/04/22 10:31:57;;;;;;;;;51.50;39.00;;;;;;;;5060170;28;11575;-71
2023/04/22 10:34:26;;;;;;;;;36.75;35.50;;;;;;;;5060042;28;11568;-72
2023/04/22 10:36:55;;;;;;;;;47.75;40.50;;;;;;;;5053070;28;11604;-74
2023/04/22 10:39:23;;;;;;;;;48.50;39.50;;;;;;;;5052915;28;11661;-74
2023/04/22 10:41:57;;;;;;;;;47.50;39.00;;;;;;;;5047463;28;11499;-73
2023/04/22 10:44:44;;;;;;;;;45.75;38.50;;;;;;;;5038807;28;11557;-74
2023/04/22 10:47:11;;;;;;;;;37.50;35.00;;;;;;;;5040758;28;11537;-76
2023/04/22 10:49:39;;;;;;;;;57.50;44.50;;;;;;;;5042144;28;11556;-78
2023/04/22 10:52:08;;;;;;;;;47.25;41.00;;;;;;;;5050174;28;11655;-76
2023/04/22 10:55:00;;;;;;;;;42.00;38.25;;;;;;;;5050441;28;12338;-73
2023/04/22 10:57:39;;;;;;;;;36.75;34.50;;;;;;;;5040936;28;11525;-73
2023/04/22 11:00:25;;;;;;;;;44.50;36.75;;;;;;;;5035442;28;11657;-76
2023/04/22 11:02:54;;;;;;;;;47.25;39.25;;;;;;;;5047459;28;11542;-74
2023/04/22 11:05:23;;;;;;;;;45.75;38.00;;;;;;;;5047492;28;11526;-76
2023/04/22 11:07:53;;;;;;;;;48.50;40.25;;;;;;;;5046792;28;11541;-79
2023/04/22 11:10:41;;;;;;;;;36.50;31.00;;;;;;;;5045506;28;11517;-74
2023/04/22 11:13:10;;;;;;;;;38.25;33.25;;;;;;;;5046516;28;11542;-78
2023/04/22 11:15:41;;;;;;;;;40.50;36.25;;;;;;;;5047066;28;11582;-77
2023/04/22 11:18:11;;;;;;;;;35.50;34.50;;;;;;;;5046894;28;11500;-77
2023/04/22 11:20:38;;;;;;;;;39.00;33.75;;;;;;;;5047795;28;11522;-81
2023/04/22 11:23:05;;;;;;;;;34.50;32.25;;;;;;;;5047204;28;11527;-78
2023/04/22 11:25:32;;;;;;;;;37.00;33.25;;;;;;;;5047587;28;11352;-80
2023/04/22 11:28:00;;;;;;;;;38.50;34.00;;;;;;;;5047028;28;11153;-77
2023/04/22 11:30:30;;;;;;;;;38.75;35.25;;;;;;;;5046126;28;11450;-78
2023/04/22 11:32:59;;;;;;;;;34.25;32.75;;;;;;;;5046988;28;11206;-78
2023/04/22 11:35:29;;;;;;;;;38.50;35.00;;;;;;;;5048217;28;11930;-75
2023/04/22 11:37:58;;;;;;;;;40.25;35.50;;;;;;;;5046678;28;11537;-75
2023/04/22 11:40:27;;;;;;;;;47.75;39.00;;;;;;;;5046966;28;11017;-75
2023/04/22 11:42:55;;;;;;;;;31.75;31.75;;;;;;;;5050552;28;11377;-78
2023/04/22 11:45:23;;;;;;;;;34.00;31.50;;;;;;;;5050898;28;10977;-78
2023/04/22 11:47:51;;;;;;;;;33.00;30.25;;;;;;;;5052514;28;10910;-77
2023/04/22 11:50:22;;;;;;;;;38.00;35.25;;;;;;;;5050780;28;10912;-74
2023/04/22 11:52:51;;;;;;;;;43.00;35.00;;;;;;;;5052415;28;10762;-77
2023/04/22 11:55:22;;;;;;;;;38.25;33.50;;;;;;;;5048687;28;10774;-76
2023/04/22 11:57:54;;;;;;;;;34.75;33.00;;;;;;;;5044403;28;10792;-78
2023/04/22 12:00:23;;;;;;;;;39.25;33.75;;;;;;;;5050145;28;11630;-76
2023/04/22 12:02:58;;;;;;;;;34.00;32.50;;;;;;;;5051228;28;10773;-77
2023/04/22 12:05:37;;;;;;;;;40.25;33.50;;;;;;;;5041531;28;10776;-78
2023/04/22 12:08:08;;;;;;;;;31.25;31.25;;;;;;;;5051924;28;10815;-78
2023/04/22 12:10:39;;;;;;;;;30.75;28.50;;;;;;;;5053086;28;10841;-79
2023/04/22 12:13:07;;;;;;;;;35.00;33.00;;;;;;;;5054090;28;10848;-79
2023/04/22 12:15:46;;;;;;;;;37.00;34.75;;;;;;;;5056460;28;10754;-83
2023/04/22 12:18:13;;;;;;;;;37.75;34.75;;;;;;;;5060793;28;10940;-79
2023/04/22 12:20:42;;;;;;;;;32.25;29.25;;;;;;;;5053445;28;10986;-78
2023/04/22 12:23:14;;;;;;;;;35.00;33.00;;;;;;;;5053327;28;10679;-78
2023/04/22 12:25:42;;;;;;;;;35.75;32.50;;;;;;;;5060841;28;10826;-75
2023/04/22 12:28:10;;;;;;;;;37.00;33.00;;;;;;;;5058949;28;10757;-74
2023/04/22 12:30:37;;;;;;;;;37.75;35.50;;;;;;;;5054314;28;10869;-72
2023/04/22 12:33:05;;;;;;;;;33.50;32.75;;;;;;;;5049872;28;10924;-73
2023/04/22 12:35:32;;;;;;;;;39.75;36.25;;;;;;;;5050583;28;10640;-75
2023/04/22 12:38:02;;;;;;;;;43.50;36.75;;;;;;;;5050271;28;11745;-72
2023/04/22 12:40:29;;;;;;;;;45.25;37.00;;;;;;;;5049731;28;10961;-73
2023/04/22 12:42:56;;;;;;;;;39.50;36.25;;;;;;;;5050077;28;10847;-74
2023/04/22 12:45:23;;;;;;;;;47.50;37.75;;;;;;;;5050462;28;10834;-74
2023/04/22 12:47:52;;;;;;;;;46.25;36.00;;;;;;;;5049662;28;11007;-76
2023/04/22 12:50:20;;;;;;;;;42.25;35.50;;;;;;;;5049937;28;11001;-75
2023/04/22 12:52:47;;;;;;;;;38.00;35.00;;;;;;;;5050328;28;10937;-74
2023/04/22 12:55:16;;;;;;;;;43.25;35.50;;;;;;;;5049699;28;10775;-74
2023/04/22 12:57:45;;;;;;;;;44.25;39.50;;;;;;;;5049622;28;11708;-75
2023/04/22 13:00:13;;;;;;;;;43.25;38.00;;;;;;;;5048583;28;10926;-75
2023/04/22 13:02:42;;;;;;;;;42.75;37.50;;;;;;;;5050008;28;11089;-74
2023/04/22 13:05:09;;;;;;;;;48.50;38.25;;;;;;;;5050114;28;11107;-75
2023/04/22 13:07:37;;;;;;;;;40.50;35.00;;;;;;;;5048319;28;12253;-75
2023/04/22 13:10:05;;;;;;;;;54.50;41.25;;;;;;;;5049293;28;10895;-75
2023/04/22 13:12:33;;;;;;;;;51.00;40.25;;;;;;;;5038176;28;11828;-76
2023/04/22 13:15:01;;;;;;;;;41.00;34.75;;;;;;;;5049665;28;11364;-74
2023/04/22 13:17:28;;;;;;;;;47.25;39.75;;;;;;;;5049695;28;10832;-76
2023/04/22 13:19:55;;;;;;;;;45.00;36.75;;;;;;;;5049604;28;10916;-77
2023/04/22 13:22:22;;;;;;;;;44.00;36.75;;;;;;;;5049246;28;10774;-75
2023/04/22 13:24:50;;;;;;;;;51.50;43.50;;;;;;;;5049653;28;10840;-74
2023/04/22 13:27:17;;;;;;;;;45.25;40.25;;;;;;;;5050084;28;11022;-77
2023/04/22 13:29:45;;;;;;;;;40.25;35.75;;;;;;;;5050231;28;10817;-78
2023/04/22 13:32:13;;;;;;;;;48.75;36.50;;;;;;;;5049380;28;11059;-76
2023/04/22 13:34:40;;;;;;;;;43.75;36.00;;;;;;;;5058629;28;10665;-75
2023/04/22 13:37:07;;;;;;;;;46.75;39.25;;;;;;;;5052462;28;11214;-78
2023/04/22 13:39:34;;;;;;;;;42.50;36.50;;;;;;;;5066738;28;10751;-77
2023/04/22 13:42:02;;;;;;;;;46.50;38.75;;;;;;;;5061740;28;10591;-76
2023/04/22 13:44:29;;;;;;;;;47.25;39.75;;;;;;;;5067345;28;10592;-80
2023/04/22 13:46:58;;;;;;;;;35.50;33.00;;;;;;;;5064069;28;10818;-78
2023/04/22 13:49:26;;;;;;;;;41.50;36.25;;;;;;;;5067065;28;10470;-81
2023/04/22 13:51:53;;;;;;;;;36.75;35.00;;;;;;;;5060458;28;10534;-80
2023/04/22 13:54:20;;;;;;;;;43.75;38.00;;;;;;;;5049108;28;10685;-78
2023/04/22 13:56:48;;;;;;;;;46.50;37.50;;;;;;;;5049002;28;10654;-80
2023/04/22 13:59:15;;;;;;;;;46.25;37.00;;;;;;;;5060937;28;10521;-80
2023/04/22 14:01:43;;;;;;;;;40.25;35.00;;;;;;;;5060091;28;11264;-80
2023/04/22 14:04:11;;;;;;;;;39.75;35.50;;;;;;;;5050014;28;10674;-81
2023/04/22 14:06:38;;;;;;;;;34.50;33.00;;;;;;;;5054955;28;10372;-79
2023/04/22 14:09:06;;;;;;;;;41.50;36.25;;;;;;;;5057091;28;11268;-79
2023/04/22 14:11:33;;;;;;;;;34.00;32.50;;;;;;;;5060481;28;10533;-78
2023/04/22 14:14:01;;;;;;;;;38.25;34.00;;;;;;;;5061920;28;10299;-79
2023/04/22 14:16:28;;;;;;;;;34.75;32.75;;;;;;;;5056733;28;10340;-80
2023/04/22 14:18:55;;;;;;;;;39.50;34.25;;;;;;;;5058367;28;10424;-78
2023/04/22 14:21:24;;;;;;;;;33.75;33.00;;;;;;;;5054722;28;10274;-77